Veuillez saisir l'adresse e-mail associée à votre compte d'utilisateur. Votre identifiant vous sera envoyé à cette adresse.

METAR TAF

[Source: ADDS]
METAR
LFCR 142130Z AUTO 13013KT 9999 SCT020/// SCT041/// OVC088/// ///CB 17/14 Q1008 TEMPO 30025G40KT 1200 TSRAGR BECMG BKN005 =
LFCR 141700Z 1418/1518 14018G30KT 9999 FEW025 SCT050CB TEMPO 1418/1422 4000 SHRA PROB40 TEMPO 1418/1422 2000 TSRA BECMG 1422/1424 29012KT 4000 RA BKN005 TEMPO 1422/1501 2000 TSRA BKN020CB PROB30 TEMPO 1422/1424 30025G40KT 1200 TSRAGR BECMG 1510/1512 9999 NSW BKN013 BECMG 1513/1515 SCT025 PROB40 TEMPO 1512/1518 4000 SHRA SCT020TCU LFBA 142130Z AUTO 27008KT 9999 ///TCU 15/14 Q1010 =
LFBA 141400Z 1415/1424 12015KT 9999 BKN040 TEMPO 1415/1417 12020G30KT PROB40 1415/1421 VRB20G40KT 4000 TSRA BKN015 BKN050CB PROB40 TEMPO 1415/1418 2000 TSRAGR BKN010 BKN040CB BECMG 1421/1423 30012KT LFSL 142130Z AUTO 08005KT 010V130 9999 -RA VCTS FEW004/// BKN072/// OVC098/// ///CB 13/13 Q1009 =
LFSL 141400Z 1415/1424 17012KT CAVOK TEMPO 1415/1416 -SHRA SCT040TCU BECMG 1416/1418 27010KT BKN006 SCT030TCU FEW050CB TEMPO 1416/1422 3000 TSRA BKN025CB PROB30 TEMPO 1416/1420 26025G40KT 1200 TSRAGR TEMPO 1422/1424 4000 RA BKN004 LFLW 142130Z AUTO 29008KT 230V350 9999 -RA VCTS BKN018/// BKN023/// OVC084/// ///CB 13/10 Q1009 =
LFLW 141400Z 1415/1424 15018G30KT CAVOK PROB40 TEMPO 1415/1418 -SHRA FEW060CB PROB40 TEMPO 1418/1424 2000 TSRA BKN014 SCT025CB
TAF
LFCR 141700Z 1418/1518 14018G30KT 9999 FEW025 SCT050CB TEMPO 1418/1422 4000 SHRA PROB40 TEMPO 1418/1422 2000 TSRA BECMG 1422/1424 29012KT 4000 RA BKN005 TEMPO 1422/1501 2000 TSRA BKN020CB PROB30 TEMPO 1422/1424 30025G40KT 1200 TSRAGR BECMG 1510/1512 9999 NSW BKN013 BECMG 1513/1515 SCT025 PROB40 TEMPO 1512/1518 4000 SHRA SCT020TCU =
LFBA 141400Z 1415/1424 12015KT 9999 BKN040 TEMPO 1415/1417 12020G30KT PROB40 1415/1421 VRB20G40KT 4000 TSRA BKN015 BKN050CB PROB40 TEMPO 1415/1418 2000 TSRAGR BKN010 BKN040CB BECMG 1421/1423 30012KT =
LFSL 141400Z 1415/1424 17012KT CAVOK TEMPO 1415/1416 -SHRA SCT040TCU BECMG 1416/1418 27010KT BKN006 SCT030TCU FEW050CB TEMPO 1416/1422 3000 TSRA BKN025CB PROB30 TEMPO 1416/1420 26025G40KT 1200 TSRAGR TEMPO 1422/1424 4000 RA BKN004 =
LFLW 141400Z 1415/1424 15018G30KT CAVOK PROB40 TEMPO 1415/1418 -SHRA FEW060CB PROB40 TEMPO 1418/1424 2000 TSRA BKN014 SCT025CB =
SR / SS: 06:07 / 17:12 UTC (LFCC 2019-10-14)